Time;durP1;ratioP1;P1;durP2;ratioP2;P2;SDS_P1;SDS_P2;PMS_P1;PMS_P2;Temp;Humidity;BMP_temperature;BMP_pressure;BME280_temperature;BME280_humidity;BME280_pressure;Samples;Min_cycle;Max_cycle;Signal;HPM_P1;HPM_P2
2022/06/09 00:02:21;;;;;;;1999.90;999.90;;;13.20;99.90;;;;;;5045619;28;20131;-88
2022/06/09 00:04:47;;;;;;;1999.90;999.90;;;13.20;99.90;;;;;;5022857;28;20524;-89
2022/06/09 00:07:21;;;;;;;1999.90;999.90;;;13.20;99.90;;;;;;5040585;28;20025;-88
2022/06/09 00:09:58;;;;;;;1999.90;999.90;;;13.30;99.90;;;;;;5038020;28;20323;-88
2022/06/09 00:12:25;;;;;;;1999.90;999.90;;;13.30;99.90;;;;;;5038852;28;20076;-88
2022/06/09 00:14:51;;;;;;;1999.90;999.90;;;13.30;99.90;;;;;;5032506;28;20064;-88
2022/06/09 00:17:17;;;;;;;1999.90;999.90;;;13.30;99.90;;;;;;5019179;28;20488;-88
2022/06/09 00:19:44;;;;;;;1999.90;999.90;;;13.20;99.90;;;;;;5029607;28;20053;-91
2022/06/09 00:22:09;;;;;;;1999.90;999.90;;;13.30;99.90;;;;;;5063589;28;20723;-88
2022/06/09 00:24:35;;;;;;;1999.90;999.90;;;13.20;99.90;;;;;;5027947;28;20492;-89
2022/06/09 00:27:01;;;;;;;1999.90;999.90;;;13.20;99.90;;;;;;5029211;28;20041;-88
2022/06/09 00:29:27;;;;;;;1999.90;999.90;;;13.20;99.90;;;;;;5034973;28;20032;-88
2022/06/09 00:31:53;;;;;;;1999.90;999.90;;;13.20;99.90;;;;;;5042198;28;20041;-89
2022/06/09 00:34:18;;;;;;;1999.90;999.90;;;13.20;99.90;;;;;;5036620;28;20285;-89
2022/06/09 00:36:44;;;;;;;1999.90;999.90;;;13.10;99.90;;;;;;5036685;28;20093;-88
2022/06/09 00:39:10;;;;;;;1999.90;999.90;;;12.90;99.90;;;;;;5021811;28;20032;-89
2022/06/09 00:41:40;;;;;;;1999.90;999.90;;;12.60;99.90;;;;;;5037472;28;20427;-89
2022/06/09 00:44:23;;;;;;;1999.90;999.90;;;12.50;99.90;;;;;;5033457;28;20542;-90
2022/06/09 00:46:56;;;;;;;1999.90;999.90;;;12.30;99.90;;;;;;5031795;28;20052;-88
2022/06/09 00:49:35;;;;;;;1999.90;999.90;;;12.30;99.90;;;;;;5033497;28;20064;-89
2022/06/09 00:52:04;;;;;;;1999.90;999.90;;;12.20;99.90;;;;;;5028697;28;20290;-88
2022/06/09 00:54:54;;;;;;;1999.90;999.90;;;12.20;99.90;;;;;;5030350;28;20060;-89
2022/06/09 00:57:34;;;;;;;1999.90;999.90;;;12.20;99.90;;;;;;5010467;28;20083;-89
2022/06/09 01:00:09;;;;;;;1999.90;999.90;;;12.20;99.90;;;;;;5038101;28;20512;-88
2022/06/09 01:02:36;;;;;;;1999.90;999.90;;;12.10;99.90;;;;;;5031942;28;20033;-90
2022/06/09 01:05:05;;;;;;;1999.90;999.90;;;12.20;99.90;;;;;;5032327;28;20025;-89
2022/06/09 01:07:49;;;;;;;1999.90;999.90;;;12.20;99.90;;;;;;5036280;28;20559;-88
2022/06/09 01:10:14;;;;;;;1999.90;999.90;;;12.20;99.90;;;;;;5037841;28;20037;-89
2022/06/09 01:12:42;;;;;;;1999.90;999.90;;;12.20;99.90;;;;;;5034155;28;20044;-89
2022/06/09 01:15:23;;;;;;;1999.90;999.90;;;12.10;99.90;;;;;;5030059;28;20284;-89
2022/06/09 01:18:13;;;;;;;1999.90;999.90;;;12.10;99.90;;;;;;5024821;28;20057;-89
2022/06/09 01:20:46;;;;;;;1999.90;999.90;;;12.00;99.90;;;;;;5029638;28;20032;-88
2022/06/09 01:23:39;;;;;;;1999.90;999.90;;;12.00;99.90;;;;;;5023344;28;20045;-89
2022/06/09 01:26:22;;;;;;;1999.90;999.90;;;12.00;99.90;;;;;;5018765;28;20030;-90
2022/06/09 01:29:07;;;;;;;1999.90;999.90;;;12.00;99.90;;;;;;5028239;28;20293;-89
2022/06/09 01:31:44;;;;;;;1999.90;999.90;;;12.00;99.90;;;;;;5038685;28;20515;-90
2022/06/09 01:34:28;;;;;;;1999.90;999.90;;;12.00;99.90;;;;;;5036712;28;20041;-90
2022/06/09 01:37:32;;;;;;;1999.90;999.90;;;12.00;99.90;;;;;;5024125;28;20033;-89
2022/06/09 01:40:03;;;;;;;1999.90;999.90;;;12.00;99.90;;;;;;4984560;28;20043;-88
2022/06/09 01:42:33;;;;;;;1999.90;999.90;;;12.10;99.90;;;;;;5014750;28;20046;-89
2022/06/09 01:45:04;;;;;;;1999.90;999.90;;;12.10;99.90;;;;;;5017169;28;20029;-89
2022/06/09 01:47:38;;;;;;;1999.90;999.90;;;12.10;99.90;;;;;;5013185;28;20042;-90
2022/06/09 01:50:07;;;;;;;1999.90;999.90;;;12.10;99.90;;;;;;5018738;28;20030;-89
2022/06/09 01:52:35;;;;;;;1999.90;999.90;;;12.10;99.90;;;;;;5017512;28;20033;-89
2022/06/09 01:55:03;;;;;;;1999.90;999.90;;;12.10;99.90;;;;;;5021384;28;20040;-89
2022/06/09 01:57:35;;;;;;;1999.90;999.90;;;12.10;99.90;;;;;;5026884;28;20056;-90
2022/06/09 02:00:08;;;;;;;1999.90;999.90;;;12.10;99.90;;;;;;5036209;28;20571;-89
2022/06/09 02:02:42;;;;;;;1999.90;999.90;;;12.10;99.90;;;;;;5025272;28;20643;-89
2022/06/09 02:05:12;;;;;;;1999.90;999.90;;;12.10;99.90;;;;;;5035911;28;20610;-89
2022/06/09 02:07:40;;;;;;;1999.90;999.90;;;12.10;99.90;;;;;;5036232;28;20124;-90
2022/06/09 02:10:35;;;;;;;1999.90;999.90;;;12.10;99.90;;;;;;5037952;28;20035;-90
2022/06/09 02:13:05;;;;;;;1999.90;999.90;;;12.10;99.90;;;;;;5021907;28;20429;-89
2022/06/09 02:15:54;;;;;;;1999.90;999.90;;;12.20;99.90;;;;;;5011845;28;20021;-90
2022/06/09 02:18:23;;;;;;;1999.90;999.90;;;12.20;99.90;;;;;;5028679;28;20029;-89
2022/06/09 02:20:55;;;;;;;1999.90;999.90;;;12.20;99.90;;;;;;5031517;28;20071;-89
2022/06/09 02:23:21;;;;;;;1999.90;999.90;;;12.20;99.90;;;;;;5030420;28;20790;-89
2022/06/09 02:25:46;;;;;;;1999.90;999.90;;;12.20;99.90;;;;;;5031333;28;20104;-90
2022/06/09 02:28:12;;;;;;;1999.90;999.90;;;12.20;99.90;;;;;;5024108;28;20417;-89
2022/06/09 02:30:38;;;;;;;1999.90;999.90;;;12.10;99.90;;;;;;5037146;28;20056;-88
2022/06/09 02:33:04;;;;;;;1999.90;999.90;;;12.00;99.90;;;;;;5041442;28;20017;-89
2022/06/09 02:35:30;;;;;;;1999.90;999.90;;;12.00;99.90;;;;;;5039910;28;20704;-89
2022/06/09 02:37:56;;;;;;;1999.90;999.90;;;12.00;99.90;;;;;;5038690;28;20038;-89
2022/06/09 02:40:22;;;;;;;1999.90;999.90;;;12.00;99.90;;;;;;5033842;28;20025;-89
2022/06/09 02:42:47;;;;;;;1999.90;999.90;;;12.00;99.90;;;;;;5032255;28;20040;-89
2022/06/09 02:45:17;;;;;;;1999.90;999.90;;;12.10;99.90;;;;;;5032794;28;20447;-89
2022/06/09 02:47:42;;;;;;;1999.90;999.90;;;12.10;99.90;;;;;;5032196;28;20026;-89
2022/06/09 02:50:09;;;;;;;1999.90;999.90;;;12.10;99.90;;;;;;5033860;28;20029;-89
2022/06/09 02:52:34;;;;;;;1999.90;999.90;;;12.10;99.90;;;;;;5027491;28;20036;-89
2022/06/09 02:55:00;;;;;;;1999.90;999.90;;;12.20;99.90;;;;;;5024922;28;20578;-89
2022/06/09 02:57:26;;;;;;;1999.90;999.90;;;12.20;99.90;;;;;;5027718;28;20025;-90
2022/06/09 02:59:52;;;;;;;1999.90;999.90;;;12.20;99.90;;;;;;5037594;28;20547;-89
2022/06/09 03:02:21;;;;;;;1999.90;999.90;;;12.20;99.90;;;;;;5036796;28;20073;-89
2022/06/09 03:04:47;;;;;;;1999.90;999.90;;;12.20;99.90;;;;;;5034490;28;20591;-89
2022/06/09 03:07:13;;;;;;;1999.90;999.90;;;12.30;99.90;;;;;;5033888;28;20053;-90
2022/06/09 03:09:40;;;;;;;1999.90;999.90;;;12.20;99.90;;;;;;5036986;28;20098;-88
2022/06/09 03:12:07;;;;;;;1999.90;999.90;;;12.20;99.90;;;;;;5041330;28;20044;-89
2022/06/09 03:14:33;;;;;;;1999.90;999.90;;;12.30;99.90;;;;;;5029071;28;20037;-89
2022/06/09 03:17:00;;;;;;;1999.90;999.90;;;12.20;99.90;;;;;;5035789;28;20071;-89
2022/06/09 03:19:25;;;;;;;1999.90;999.90;;;12.30;99.90;;;;;;5034443;28;20049;-89
2022/06/09 03:21:51;;;;;;;1999.90;999.90;;;12.30;99.90;;;;;;5034262;28;20571;-89
2022/06/09 03:24:17;;;;;;;1999.90;999.90;;;12.30;99.90;;;;;;5029701;28;20064;-89
2022/06/09 03:26:43;;;;;;;1999.90;999.90;;;12.20;99.90;;;;;;5029752;28;20032;-89
2022/06/09 03:29:09;;;;;;;1999.90;999.90;;;12.20;99.90;;;;;;5037482;28;20047;-89
2022/06/09 03:31:34;;;;;;;1999.90;999.90;;;12.20;99.90;;;;;;5044302;28;20496;-89
2022/06/09 03:34:02;;;;;;;1999.90;999.90;;;12.20;99.90;;;;;;5041555;28;20043;-89
2022/06/09 03:36:28;;;;;;;1999.90;999.90;;;12.10;99.90;;;;;;5035611;28;20057;-90
2022/06/09 03:38:54;;;;;;;1999.90;999.90;;;12.00;99.90;;;;;;5037079;28;20036;-88
2022/06/09 03:41:20;;;;;;;1999.90;999.90;;;12.00;99.90;;;;;;5020637;28;20132;-89
2022/06/09 03:43:45;;;;;;;1999.90;999.90;;;11.90;99.90;;;;;;5033954;28;20030;-90
2022/06/09 03:46:12;;;;;;;1999.90;999.90;;;11.70;99.90;;;;;;5036273;28;20033;-89
2022/06/09 03:48:38;;;;;;;1999.90;999.90;;;11.70;99.90;;;;;;5036433;28;20033;-89
2022/06/09 03:51:03;;;;;;;1999.90;999.90;;;11.60;99.90;;;;;;5031150;28;20044;-90
2022/06/09 03:53:29;;;;;;;1999.90;999.90;;;11.50;99.90;;;;;;5030618;28;20500;-89
2022/06/09 03:55:57;;;;;;;1999.90;999.90;;;11.60;99.90;;;;;;5028054;28;20377;-88
2022/06/09 03:58:23;;;;;;;1999.90;999.90;;;11.50;99.90;;;;;;5032679;28;20022;-89
2022/06/09 04:00:48;;;;;;;1999.90;999.90;;;11.50;99.90;;;;;;5036823;28;20037;-89
2022/06/09 04:03:15;;;;;;;1999.90;999.90;;;11.60;99.90;;;;;;5041963;28;20041;-88
2022/06/09 04:05:41;;;;;;;1999.90;999.90;;;11.60;99.90;;;;;;5038927;28;20064;-89
2022/06/09 04:08:11;;;;;;;1999.90;999.90;;;11.60;99.90;;;;;;5035112;28;20499;-89
2022/06/09 04:10:37;;;;;;;1999.90;999.90;;;11.60;99.90;;;;;;5035746;28;20060;-89
2022/06/09 04:13:02;;;;;;;1999.90;999.90;;;11.70;99.90;;;;;;5035049;28;20307;-87
2022/06/09 04:15:29;;;;;;;1999.90;999.90;;;11.80;99.90;;;;;;5032533;28;20052;-88
2022/06/09 04:17:55;;;;;;;1999.90;999.90;;;11.80;99.90;;;;;;5029699;28;20259;-89
2022/06/09 04:20:25;;;;;;;1999.90;999.90;;;11.90;99.90;;;;;;5029169;28;20029;-89
2022/06/09 04:22:51;;;;;;;1999.90;999.90;;;11.90;99.90;;;;;;5025361;28;20048;-89
2022/06/09 04:25:18;;;;;;;1999.90;999.90;;;12.00;99.90;;;;;;5028498;28;20022;-89
2022/06/09 04:27:45;;;;;;;1999.90;999.90;;;12.10;99.90;;;;;;5031050;28;20181;-88
2022/06/09 04:30:12;;;;;;;1999.90;999.90;;;12.10;99.90;;;;;;5041022;28;20052;-90
2022/06/09 04:32:38;;;;;;;1999.90;999.90;;;12.10;99.90;;;;;;5042343;28;20496;-89
2022/06/09 04:35:04;;;;;;;1999.90;999.90;;;12.20;99.90;;;;;;5039527;28;20035;-89
2022/06/09 04:40:14;;;;;;;1999.90;999.90;;;12.20;99.90;;;;;;5036760;28;20043;-88
2022/06/09 04:42:40;;;;;;;1999.90;999.90;;;12.30;99.90;;;;;;5035866;28;20116;-89
2022/06/09 04:45:06;;;;;;;1999.90;999.90;;;12.50;99.90;;;;;;5033979;28;20483;-89
2022/06/09 04:47:32;;;;;;;1999.90;999.90;;;12.70;99.90;;;;;;5029525;28;20033;-88
2022/06/09 04:49:57;;;;;;;1999.90;999.90;;;12.80;99.90;;;;;;5030671;28;20116;-88
2022/06/09 04:52:23;;;;;;;1999.90;999.90;;;12.90;99.90;;;;;;5024017;28;20041;-89
2022/06/09 04:54:48;;;;;;;1999.90;999.90;;;12.90;99.90;;;;;;5023531;28;20060;-88
2022/06/09 04:57:14;;;;;;;1999.90;999.90;;;12.80;99.90;;;;;;5004293;28;20139;-88
2022/06/09 04:59:40;;;;;;;1999.90;999.90;;;13.00;99.90;;;;;;5045517;28;20491;-87
2022/06/09 05:02:05;;;;;;;1999.90;999.90;;;12.80;99.90;;;;;;5044319;28;20499;-88
2022/06/09 05:04:31;;;;;;;1999.90;999.90;;;12.90;99.90;;;;;;5038227;28;20124;-88
2022/06/09 05:06:57;;;;;;;1999.90;999.90;;;12.90;99.90;;;;;;5034893;28;20033;-88
2022/06/09 05:09:23;;;;;;;1999.90;999.90;;;12.90;99.90;;;;;;5034431;28;20381;-88
2022/06/09 05:11:48;;;;;;;1999.90;999.90;;;12.90;99.90;;;;;;5037211;28;20095;-87
2022/06/09 05:14:14;;;;;;;1999.90;999.90;;;12.90;99.90;;;;;;5035782;28;20079;-87
2022/06/09 05:16:40;;;;;;;1999.90;999.90;;;12.80;99.90;;;;;;5034704;28;20040;-87
2022/06/09 05:19:05;;;;;;;1999.90;999.90;;;12.80;99.90;;;;;;5029246;28;20419;-87
2022/06/09 05:21:31;;;;;;;1999.90;999.90;;;12.70;99.90;;;;;;5029574;28;20507;-88
2022/06/09 05:23:56;;;;;;;1999.90;999.90;;;12.80;99.90;;;;;;5032146;28;20048;-88
2022/06/09 05:26:22;;;;;;;1999.90;999.90;;;12.80;99.90;;;;;;5021589;28;20108;-88
2022/06/09 05:28:48;;;;;;;1999.90;999.90;;;12.80;99.90;;;;;;5041175;28;20036;-88
2022/06/09 05:31:14;;;;;;;1999.90;999.90;;;12.80;99.90;;;;;;5041371;28;20032;-88
2022/06/09 05:33:41;;;;;;;1999.90;999.90;;;12.80;99.90;;;;;;5038992;28;20041;-87
2022/06/09 05:36:07;;;;;;;1999.90;999.90;;;12.80;99.90;;;;;;5017223;28;20025;-89
2022/06/09 05:46:46;;;;;;;1999.90;999.90;;;13.00;99.90;;;;;;5028519;28;20032;-88
2022/06/09 05:49:13;;;;;;;1999.90;999.90;;;12.90;99.90;;;;;;5034101;28;20119;-88
2022/06/09 05:51:38;;;;;;;1999.90;999.90;;;12.90;99.90;;;;;;5030339;28;20109;-88
2022/06/09 05:54:04;;;;;;;1999.90;999.90;;;12.90;99.90;;;;;;5023347;28;20104;-87
2022/06/09 05:56:30;;;;;;;1999.90;999.90;;;12.80;99.90;;;;;;5002129;28;20091;-87
2022/06/09 05:58:56;;;;;;;1999.90;999.90;;;12.90;99.90;;;;;;5036473;28;20425;-87
2022/06/09 06:01:22;;;;;;;1999.90;999.90;;;12.90;99.90;;;;;;5037214;28;20040;-88
2022/06/09 06:03:47;;;;;;;1999.90;999.90;;;13.00;99.90;;;;;;5039984;28;20454;-88
2022/06/09 06:08:57;;;;;;;1999.90;999.90;;;13.00;99.90;;;;;;5032364;28;20749;-89
2022/06/09 06:11:23;;;;;;;1999.90;999.90;;;13.10;99.90;;;;;;5034838;28;20061;-89
2022/06/09 06:13:49;;;;;;;1999.90;999.90;;;13.10;99.90;;;;;;5034800;28;20451;-89
2022/06/09 06:16:15;;;;;;;1999.90;999.90;;;13.10;99.90;;;;;;5033637;28;20017;-87
2022/06/09 06:18:41;;;;;;;1999.90;999.90;;;13.20;99.90;;;;;;5031270;28;20495;-90
2022/06/09 06:21:07;;;;;;;1999.90;999.90;;;13.30;99.90;;;;;;5031505;28;20084;-88
2022/06/09 06:23:33;;;;;;;1999.90;999.90;;;13.30;99.90;;;;;;5029948;28;20063;-88
2022/06/09 06:26:00;;;;;;;1999.90;999.90;;;13.40;99.90;;;;;;5027643;28;20061;-88
2022/06/09 06:28:27;;;;;;;1999.90;999.90;;;13.40;99.90;;;;;;5035633;28;20075;-89
2022/06/09 06:30:53;;;;;;;1999.90;999.90;;;13.30;99.90;;;;;;5036836;28;20135;-88
2022/06/09 06:33:19;;;;;;;1999.90;999.90;;;13.00;99.90;;;;;;5036815;28;20599;-89
2022/06/09 06:35:45;;;;;;;1999.90;999.90;;;12.80;99.90;;;;;;5034737;28;20449;-89
2022/06/09 06:38:11;;;;;;;1999.90;999.90;;;12.70;99.90;;;;;;5029879;28;20520;-89
2022/06/09 06:40:37;;;;;;;1999.90;999.90;;;12.60;99.90;;;;;;5062320;28;20037;-89
2022/06/09 06:43:03;;;;;;;1999.90;999.90;;;12.50;99.90;;;;;;5033999;28;20442;-89
2022/06/09 06:45:29;;;;;;;1999.90;999.90;;;12.60;99.90;;;;;;5035369;28;20049;-88
2022/06/09 06:47:56;;;;;;;1999.90;999.90;;;12.60;99.90;;;;;;5033551;28;20067;-89
2022/06/09 06:50:22;;;;;;;1999.90;999.90;;;12.60;99.90;;;;;;5032954;28;20177;-88
2022/06/09 06:52:48;;;;;;;1999.90;999.90;;;12.80;99.90;;;;;;5034400;28;20132;-89
2022/06/09 06:55:17;;;;;;;1999.90;999.90;;;12.70;99.90;;;;;;5030251;28;20703;-87
2022/06/09 06:57:44;;;;;;;1999.90;999.90;;;12.80;99.90;;;;;;5029900;28;20021;-88
2022/06/09 07:00:12;;;;;;;1999.90;999.90;;;12.70;99.90;;;;;;5047697;28;20091;-89
2022/06/09 07:02:38;;;;;;;1999.90;999.90;;;12.90;99.90;;;;;;5037356;28;20033;-88
2022/06/09 07:05:04;;;;;;;1999.90;999.90;;;13.10;99.90;;;;;;5041800;28;20051;-89
2022/06/09 07:07:30;;;;;;;1999.90;999.90;;;13.20;99.90;;;;;;5037068;28;20048;-89
2022/06/09 07:09:56;;;;;;;1999.90;999.90;;;13.40;99.90;;;;;;5031978;28;20451;-89
2022/06/09 07:12:22;;;;;;;1999.90;999.90;;;13.40;99.90;;;;;;5038539;28;20028;-89
2022/06/09 07:14:47;;;;;;;1999.90;999.90;;;13.60;99.90;;;;;;5030104;28;20030;-88
2022/06/09 07:17:13;;;;;;;1999.90;999.90;;;13.70;99.90;;;;;;5033931;28;20036;-88
2022/06/09 07:19:39;;;;;;;1999.90;999.90;;;13.80;99.90;;;;;;5028020;28;20406;-88
2022/06/09 07:22:06;;;;;;;1999.90;999.90;;;13.70;99.90;;;;;;5026019;28;20206;-88
2022/06/09 07:24:32;;;;;;;1999.90;999.90;;;13.70;99.90;;;;;;5033824;28;20037;-88
2022/06/09 07:26:58;;;;;;;1999.90;999.90;;;14.00;99.90;;;;;;5033704;28;20067;-88
2022/06/09 07:29:25;;;;;;;1999.90;999.90;;;14.10;99.90;;;;;;5038810;28;20246;-88
2022/06/09 07:31:52;;;;;;;1999.90;999.90;;;14.40;99.90;;;;;;5036055;28;20312;-88
2022/06/09 07:34:18;;;;;;;1999.90;999.90;;;14.10;99.90;;;;;;5043370;28;20155;-89
2022/06/09 07:36:44;;;;;;;1999.90;999.90;;;14.10;99.90;;;;;;5040644;28;20025;-89
2022/06/09 07:39:10;;;;;;;1999.90;999.90;;;13.90;99.90;;;;;;5034198;28;20104;-89
2022/06/09 07:41:36;;;;;;;1999.90;999.90;;;14.10;99.90;;;;;;5037508;28;20622;-88
2022/06/09 07:44:05;;;;;;;1999.90;999.90;;;14.20;99.90;;;;;;5037853;28;20034;-88
2022/06/09 07:46:31;;;;;;;1999.90;999.90;;;14.50;99.90;;;;;;5035591;28;20032;-88
2022/06/09 07:48:57;;;;;;;1999.90;999.90;;;14.80;99.90;;;;;;5031030;28;20401;-87
2022/06/09 07:51:24;;;;;;;1999.90;999.90;;;14.70;99.90;;;;;;5032742;28;20568;-88
2022/06/09 07:53:50;;;;;;;1999.90;999.90;;;14.70;99.90;;;;;;5027045;28;20385;-87
2022/06/09 07:56:16;;;;;;;1999.90;999.90;;;15.20;99.90;;;;;;5023565;28;20511;-88
2022/06/09 07:58:42;;;;;;;1999.90;999.90;;;15.20;99.90;;;;;;5037189;28;20033;-87
2022/06/09 08:01:08;;;;;;;1999.90;999.90;;;14.90;99.90;;;;;;5040454;28;20040;-87
2022/06/09 08:03:34;;;;;;;1999.90;999.90;;;15.10;99.90;;;;;;5040375;28;20032;-88
2022/06/09 08:05:59;;;;;;;1999.90;999.90;;;14.70;99.90;;;;;;5037077;28;20116;-88
2022/06/09 08:08:26;;;;;;;1999.90;999.90;;;13.70;99.90;;;;;;5037553;28;20675;-88
2022/06/09 08:10:51;;;;;;;1999.90;999.90;;;13.50;99.90;;;;;;5036518;28;20055;-89
2022/06/09 08:13:17;;;;;;;1999.90;999.90;;;13.60;99.90;;;;;;5031797;28;20166;-87
2022/06/09 08:15:44;;;;;;;1999.90;999.90;;;13.70;99.90;;;;;;5031997;28;20378;-87
2022/06/09 08:18:11;;;;;;;1999.90;999.90;;;13.70;99.90;;;;;;5026858;28;20025;-88
2022/06/09 08:20:40;;;;;;;1999.90;999.90;;;13.70;99.90;;;;;;5030286;28;20028;-88
2022/06/09 08:23:21;;;;;;;1999.90;999.90;;;13.60;99.90;;;;;;5029927;28;20061;-89
2022/06/09 08:25:48;;;;;;;1999.90;999.90;;;13.60;99.90;;;;;;5021466;28;20501;-88
2022/06/09 08:28:18;;;;;;;1999.90;999.90;;;13.60;99.90;;;;;;5040225;28;20035;-87
2022/06/09 08:30:44;;;;;;;1999.90;999.90;;;13.60;99.90;;;;;;5037815;28;20044;-88
2022/06/09 08:33:10;;;;;;;1999.90;999.90;;;14.00;99.90;;;;;;5039938;28;20809;-87
2022/06/09 08:35:36;;;;;;;1999.90;999.90;;;14.30;99.90;;;;;;5041485;28;20028;-87
2022/06/09 08:38:06;;;;;;;1999.90;999.90;;;14.30;99.90;;;;;;5035856;28;20033;-87
2022/06/09 08:41:17;;;;;;;1999.90;999.90;;;14.60;99.90;;;;;;5036905;28;20045;-87
2022/06/09 08:44:29;;;;;;;1999.90;999.90;;;14.70;99.90;;;;;;5025517;28;20064;-88
2022/06/09 08:47:00;;;;;;;1999.90;999.90;;;14.00;99.90;;;;;;5044965;28;20116;-88
2022/06/09 08:49:38;;;;;;;1999.90;999.90;;;13.70;99.90;;;;;;5030778;28;20021;-89
2022/06/09 08:52:15;;;;;;;1999.90;999.90;;;13.30;99.90;;;;;;5028048;28;20033;-88
2022/06/09 08:54:41;;;;;;;1999.90;999.90;;;13.10;99.90;;;;;;5028606;28;20068;-87
2022/06/09 08:57:15;;;;;;;1999.90;999.90;;;13.80;99.90;;;;;;5037747;28;20746;-87
2022/06/09 08:59:44;;;;;;;1999.90;999.90;;;14.50;99.90;;;;;;5024235;28;20045;-87
2022/06/09 09:02:39;;;;;;;1999.90;999.90;;;14.60;99.90;;;;;;5029077;28;20072;-87
2022/06/09 09:05:23;;;;;;;1999.90;999.90;;;14.60;99.90;;;;;;5040762;28;20274;-87
2022/06/09 09:07:51;;;;;;;1999.90;999.90;;;15.00;99.90;;;;;;5036055;28;20102;-88
2022/06/09 09:10:31;;;;;;;1999.90;999.90;;;15.60;98.50;;;;;;5025002;28;20104;-88
2022/06/09 09:13:29;;;;;;;1999.90;999.90;;;15.90;99.90;;;;;;5030450;28;20018;-87
2022/06/09 09:15:59;;;;;;;1999.90;999.90;;;16.00;94.60;;;;;;5062902;28;20107;-87
2022/06/09 09:18:35;;;;;;;1999.90;999.90;;;15.90;99.90;;;;;;5030968;28;20103;-88
2022/06/09 09:21:31;;;;;;;1999.90;999.90;;;15.80;99.90;;;;;;5026047;28;20812;-88
2022/06/09 09:24:17;;;;;;;1999.90;999.90;;;15.20;99.90;;;;;;5026041;28;20044;-87
2022/06/09 09:26:46;;;;;;;1999.90;999.90;;;15.00;99.60;;;;;;5028785;28;20040;-88
2022/06/09 09:29:20;;;;;;;1999.90;999.90;;;14.90;99.90;;;;;;5037970;28;20335;-87
2022/06/09 09:31:57;;;;;;;1999.90;999.90;;;15.40;96.70;;;;;;5040145;28;20439;-88
2022/06/09 09:34:29;;;;;;;1999.90;999.90;;;15.40;85.50;;;;;;5030381;28;20021;-87
2022/06/09 09:37:00;;;;;;;416.98;308.15;;;15.60;94.60;;;;;;5034884;28;20038;-88
2022/06/09 09:39:45;;;;;;;329.25;297.27;;;16.00;84.10;;;;;;5033345;28;20029;-88
2022/06/09 09:42:24;;;;;;;281.23;262.48;;;15.70;92.40;;;;;;5034069;28;20120;-88
2022/06/09 09:45:11;;;;;;;162.05;153.48;;;15.20;96.50;;;;;;5032735;28;20120;-88
2022/06/09 09:47:57;;;;;;;116.85;111.30;;;15.90;94.40;;;;;;5031292;28;20021;-87
2022/06/09 09:50:50;;;;;;;46.53;44.63;;;16.70;82.40;;;;;;5025956;28;20112;-88
2022/06/09 09:53:18;;;;;;;47.00;44.97;;;16.20;78.30;;;;;;5017676;28;20039;-87
2022/06/09 09:56:03;;;;;;;55.90;53.25;;;15.90;80.40;;;;;;5024627;28;20031;-88
2022/06/09 09:58:48;;;;;;;33.63;32.13;;;16.50;78.40;;;;;;5041903;28;20029;-87
2022/06/09 10:01:14;;;;;;;48.50;45.85;;;16.70;65.00;;;;;;5040841;28;20045;-88
2022/06/09 10:09:33;;;;;;;23.33;22.08;;;16.00;65.80;;;;;;5035870;28;20036;-88
2022/06/09 10:12:23;;;;;;;74.43;71.30;;;16.20;63.80;;;;;;5032947;28;20136;-88
2022/06/09 10:14:53;;;;;;;54.25;52.00;;;17.70;67.20;;;;;;5022935;28;20233;-87
2022/06/09 10:17:35;;;;;;;55.38;48.15;;;18.70;56.00;;;;;;5030493;28;20025;-88
2022/06/09 10:20:15;;;;;;;70.20;54.15;;;18.30;57.20;;;;;;5035283;28;20306;-89
2022/06/09 10:22:44;;;;;;;34.42;32.85;;;18.30;57.10;;;;;;5049464;28;20025;-89
2022/06/09 10:25:29;;;;;;;35.83;34.30;;;18.10;56.80;;;;;;5027579;28;20072;-88
2022/06/09 10:28:33;;;;;;;25.55;24.60;;;17.60;59.60;;;;;;5048635;28;20056;-88
2022/06/09 10:31:24;;;;;;;40.75;39.15;;;18.30;56.50;;;;;;5035446;28;20049;-88
2022/06/09 10:34:21;;;;;;;19.27;18.27;;;18.40;59.00;;;;;;5039588;28;20519;-88
2022/06/09 10:37:02;;;;;;;27.90;26.05;;;19.00;53.30;;;;;;5037669;28;20040;-88
2022/06/09 10:39:54;;;;;;;32.65;31.20;;;19.30;52.20;;;;;;5035992;28;20108;-88
2022/06/09 10:42:39;;;;;;;49.17;46.75;;;19.40;55.60;;;;;;5036422;28;20034;-88
2022/06/09 10:45:27;;;;;;;27.13;25.63;;;19.70;51.40;;;;;;5033454;28;20018;-88
2022/06/09 10:57:09;;;;;;;29.65;28.52;;;21.30;44.90;;;;;;5033813;28;20067;-87
2022/06/09 10:59:54;;;;;;;31.00;29.40;;;21.10;42.00;;;;;;5040899;28;20096;-89
2022/06/09 11:02:23;;;;;;;27.27;26.23;;;20.30;47.70;;;;;;5044800;28;20041;-86
2022/06/09 11:04:51;;;;;;;26.43;25.30;;;19.80;45.90;;;;;;5041467;28;20120;-88
2022/06/09 11:07:41;;;;;;;37.25;35.78;;;19.40;49.40;;;;;;5031091;28;20120;-89
2022/06/09 11:10:21;;;;;;;33.28;31.33;;;20.40;47.60;;;;;;5036625;28;20504;-88
2022/06/09 11:13:23;;;;;;;32.30;31.00;;;22.00;43.10;;;;;;5049218;28;20043;-89
2022/06/09 11:16:09;;;;;;;30.35;29.05;;;23.20;40.70;;;;;;5048949;28;20044;-88
2022/06/09 11:18:45;;;;;;;73.82;69.45;;;24.20;36.30;;;;;;5027806;28;20124;-88
2022/06/09 11:21:40;;;;;;;38.38;36.88;;;23.90;36.80;;;;;;5034968;28;20078;-87
2022/06/09 11:24:31;;;;;;;30.90;29.70;;;23.60;39.60;;;;;;5027494;28;20041;-90
2022/06/09 11:27:21;;;;;;;21.73;20.83;;;22.20;38.10;;;;;;5043842;28;20112;-89
2022/06/09 11:30:24;;;;;;;27.15;26.13;;;21.10;42.00;;;;;;5043167;28;20067;-86
2022/06/09 11:32:50;;;;;;;38.47;36.97;;;19.90;44.40;;;;;;5035329;28;20099;-89
2022/06/09 11:35:44;;;;;;;31.55;30.38;;;19.40;46.50;;;;;;5037207;28;20014;-88
2022/06/09 11:38:36;;;;;;;28.48;27.08;;;19.40;46.80;;;;;;5048571;28;20037;-87
2022/06/09 11:41:15;;;;;;;33.40;31.92;;;19.00;44.40;;;;;;5037116;28;20033;-88
2022/06/09 11:44:13;;;;;;;36.08;34.47;;;18.80;46.20;;;;;;5035842;28;20033;-88
2022/06/09 11:46:41;;;;;;;40.45;38.65;;;18.80;46.40;;;;;;5035952;28;20032;-88
2022/06/09 11:49:18;;;;;;;34.55;33.13;;;19.00;49.40;;;;;;5031779;28;20044;-89
2022/06/09 11:51:44;;;;;;;32.35;31.13;;;19.10;46.30;;;;;;5029924;28;20095;-88
2022/06/09 11:54:39;;;;;;;105.38;100.28;;;19.60;49.80;;;;;;5027946;28;20104;-87
2022/06/09 11:57:16;;;;;;;63.15;60.67;;;19.90;47.70;;;;;;5041504;28;20033;-87
2022/06/09 12:00:24;;;;;;;149.77;143.02;;;20.10;51.00;;;;;;5044243;28;20124;-88
2022/06/09 12:02:59;;;;;;;37.45;36.05;;;20.90;52.80;;;;;;5070350;28;20492;-87
2022/06/09 12:05:30;;;;;;;62.25;59.08;;;20.70;45.60;;;;;;5040950;28;20033;-89
2022/06/09 12:08:15;;;;;;;52.08;49.95;;;20.50;46.60;;;;;;5034082;28;20255;-88
2022/06/09 12:11:18;;;;;;;127.35;121.75;;;20.70;49.00;;;;;;5037555;28;20033;-88
2022/06/09 12:13:44;;;;;;;96.28;91.30;;;20.00;51.70;;;;;;4988358;28;20051;-88
2022/06/09 12:16:40;;;;;;;219.75;207.85;;;19.70;52.70;;;;;;5016156;28;20403;-88
2022/06/09 12:19:24;;;;;;;41.28;39.58;;;19.80;52.60;;;;;;5030717;28;20041;-88
2022/06/09 12:22:00;;;;;;;112.65;107.20;;;20.90;45.40;;;;;;5025877;28;20481;-88
2022/06/09 12:24:31;;;;;;;120.28;114.13;;;22.10;45.20;;;;;;5028184;28;20033;-88
2022/06/09 12:27:21;;;;;;;72.03;68.93;;;21.80;43.60;;;;;;5040735;28;20094;-88
2022/06/09 12:29:56;;;;;;;46.13;44.35;;;21.10;43.20;;;;;;5036153;28;20099;-88
2022/06/09 12:32:42;;;;;;;73.32;70.38;;;21.90;43.60;;;;;;5038614;28;20036;-88
2022/06/09 12:35:35;;;;;;;46.65;44.92;;;22.40;44.40;;;;;;5040748;28;20721;-88
2022/06/09 12:38:23;;;;;;;85.03;79.50;;;23.20;38.80;;;;;;5022674;28;20049;-87
2022/06/09 12:40:53;;;;;;;45.97;44.20;;;23.30;37.80;;;;;;5017774;28;20125;-88
2022/06/09 12:43:34;;;;;;;42.78;41.13;;;23.10;37.40;;;;;;5016629;28;20362;-88
2022/06/09 12:46:17;;;;;;;65.00;62.42;;;23.70;37.10;;;;;;5029406;28;20041;-87
2022/06/09 12:48:44;;;;;;;48.05;46.03;;;25.30;35.00;;;;;;5026805;28;20028;-88
2022/06/09 12:51:29;;;;;;;103.97;99.13;;;23.10;40.50;;;;;;5029417;28;20098;-89
2022/06/09 12:54:04;;;;;;;63.00;60.55;;;23.50;38.90;;;;;;5024451;28;20034;-89
2022/06/09 12:56:41;;;;;;;52.88;50.83;;;24.40;37.30;;;;;;5041185;28;20028;-88
2022/06/09 12:59:17;;;;;;;108.07;103.85;;;24.50;37.30;;;;;;5036156;28;20042;-88
2022/06/09 13:02:02;;;;;;;95.53;90.10;;;24.60;38.80;;;;;;5040716;28;20049;-88